This is the latest recevied weather packets stored in our database for station/object W6ZZY. If no packets are shown the sender has not sent any weather packets the latest 10 day(s).
| Time | Temp. | Humidity | Pressure | Rain* | Wind** | Luminosity | Snow |
|---|---|---|---|---|---|---|---|
| 1777924219 | 17.22° C | 70% | 1018.3 hPa | 0 mm | - | - | - |
| 1777921818 | 18.33° C | 66% | 1018.2 hPa | 0 mm | - | - | - |
| 1777917075 | 17.78° C | 71% | 1018.1 hPa | 0 mm | - | - | - |
| 1777911626 | 14.44° C | 84% | 1017.6 hPa | 0 mm | - | - | - |
| 1777910416 | 13.89° C | 90% | 1017.7 hPa | 0 mm | - | - | - |
| 1777902020 | 10° C | 97% | 1017.4 hPa | 0 mm | - | - | - |
| 1777896653 | 10.56° C | 95% | 1017 hPa | 0 mm | - | - | - |
| 1777896027 | 11.11° C | 95% | 1017.1 hPa | 0 mm | - | - | - |
| 1777895422 | 11.11° C | 95% | 1017.1 hPa | 0 mm | - | - | - |
| 1777894817 | 11.11° C | 95% | 1017.2 hPa | 0 mm | - | - | - |
| 1777888825 | 11.67° C | 95% | 1016.7 hPa | 0 mm | - | - | - |
| 1777888220 | 11.67° C | 95% | 1016.8 hPa | 0 mm | - | - | - |
| 1777887615 | 11.67° C | 95% | 1016.7 hPa | 0 mm | - | - | - |
| 1777872041 | 12.22° C | 92% | 1017.2 hPa | 0 mm | - | - | - |
| 1777870830 | 11.67° C | 92% | 1016.8 hPa | 0 mm | - | - | - |
| 1777869620 | 11.67° C | 92% | 1016.7 hPa | 0 mm | - | - | - |
| 1777858220 | 14.44° C | 82% | 1015.8 hPa | 0 mm | - | - | - |
| 1777853420 | 15° C | 80% | 1015.7 hPa | 0 mm | - | - | - |
| 1777851018 | 15° C | 78% | 1015.5 hPa | 0 mm | - | - | - |
| 1777848032 | 16.11° C | 74% | 1015.6 hPa | 0 mm | - | - | - |
| 1777846821 | 17.22° C | 71% | 1015.6 hPa | 0 mm | - | - | - |
| 1777837823 | 17.22° C | 71% | 1015.9 hPa | 0 mm | - | - | - |
| 1777837218 | 17.22° C | 72% | 1015.8 hPa | 0 mm | - | - | - |
| 1777834815 | 16.67° C | 70% | 1016.1 hPa | 0 mm | - | - | - |
| 1777830618 | 14.44° C | 84% | 1015.7 hPa | 0 mm | - | - | - |
* Rain latest hour (hover to see other rain measurements)
** Current wind speed in m/s (hover to see current wind gust speed)